sensor_id;sensor_type;location;lat;lon;timestamp;P1;durP1;ratioP1;P2;durP2;ratioP2
73239;SDS011;61452;40.054;4.110;2022-09-01T00:05:50;8.73;;;2.38;;
73239;SDS011;61452;40.054;4.110;2022-09-01T00:10:55;11.90;;;1.98;;
73239;SDS011;61452;40.054;4.110;2022-09-01T00:15:58;6.55;;;1.90;;
73239;SDS011;61452;40.054;4.110;2022-09-01T00:21:01;6.32;;;1.92;;
73239;SDS011;61452;40.054;4.110;2022-09-01T00:26:03;6.80;;;2.10;;
73239;SDS011;61452;40.054;4.110;2022-09-01T00:31:06;9.23;;;1.83;;
73239;SDS011;61452;40.054;4.110;2022-09-01T00:41:11;7.47;;;1.88;;
73239;SDS011;61452;40.054;4.110;2022-09-01T00:46:16;5.22;;;1.77;;
73239;SDS011;61452;40.054;4.110;2022-09-01T00:51:23;7.93;;;1.80;;
73239;SDS011;61452;40.054;4.110;2022-09-01T00:56:25;6.15;;;2.00;;
73239;SDS011;61452;40.054;4.110;2022-09-01T01:01:27;8.57;;;2.17;;
73239;SDS011;61452;40.054;4.110;2022-09-01T01:06:29;8.25;;;1.80;;
73239;SDS011;61452;40.054;4.110;2022-09-01T01:11:33;7.93;;;1.80;;
73239;SDS011;61452;40.054;4.110;2022-09-01T01:16:37;6.50;;;1.77;;
73239;SDS011;61452;40.054;4.110;2022-09-01T01:21:45;8.20;;;2.25;;
73239;SDS011;61452;40.054;4.110;2022-09-01T01:32:08;7.93;;;2.00;;
73239;SDS011;61452;40.054;4.110;2022-09-01T01:37:13;7.50;;;1.52;;
73239;SDS011;61452;40.054;4.110;2022-09-01T01:42:16;7.55;;;2.00;;
73239;SDS011;61452;40.054;4.110;2022-09-01T01:52:21;7.53;;;2.20;;
73239;SDS011;61452;40.054;4.110;2022-09-01T01:57:27;9.10;;;2.25;;
73239;SDS011;61452;40.054;4.110;2022-09-01T02:02:33;8.25;;;1.90;;
73239;SDS011;61452;40.054;4.110;2022-09-01T02:07:35;7.07;;;1.55;;
73239;SDS011;61452;40.054;4.110;2022-09-01T02:12:42;6.78;;;1.77;;
73239;SDS011;61452;40.054;4.110;2022-09-01T02:17:45;8.32;;;2.05;;
73239;SDS011;61452;40.054;4.110;2022-09-01T02:22:47;8.77;;;1.98;;
73239;SDS011;61452;40.054;4.110;2022-09-01T02:27:52;8.80;;;2.00;;
73239;SDS011;61452;40.054;4.110;2022-09-01T02:32:56;6.25;;;2.03;;
73239;SDS011;61452;40.054;4.110;2022-09-01T02:37:59;6.80;;;1.75;;
73239;SDS011;61452;40.054;4.110;2022-09-01T02:43:02;8.02;;;2.10;;
73239;SDS011;61452;40.054;4.110;2022-09-01T02:48:04;6.43;;;2.00;;
73239;SDS011;61452;40.054;4.110;2022-09-01T02:53:11;5.40;;;1.52;;
73239;SDS011;61452;40.054;4.110;2022-09-01T02:58:16;6.38;;;1.40;;
73239;SDS011;61452;40.054;4.110;2022-09-01T03:03:25;6.10;;;1.45;;
73239;SDS011;61452;40.054;4.110;2022-09-01T03:08:27;5.30;;;1.70;;
73239;SDS011;61452;40.054;4.110;2022-09-01T03:13:32;5.18;;;1.42;;
73239;SDS011;61452;40.054;4.110;2022-09-01T03:18:34;7.95;;;1.67;;
73239;SDS011;61452;40.054;4.110;2022-09-01T03:23:37;5.80;;;1.55;;
73239;SDS011;61452;40.054;4.110;2022-09-01T03:28:39;9.63;;;1.98;;
73239;SDS011;61452;40.054;4.110;2022-09-01T03:33:42;5.40;;;1.40;;
73239;SDS011;61452;40.054;4.110;2022-09-01T03:38:53;6.93;;;1.63;;
73239;SDS011;61452;40.054;4.110;2022-09-01T03:43:57;7.78;;;1.60;;
73239;SDS011;61452;40.054;4.110;2022-09-01T03:49:02;7.15;;;1.88;;
73239;SDS011;61452;40.054;4.110;2022-09-01T03:54:09;6.30;;;1.92;;
73239;SDS011;61452;40.054;4.110;2022-09-01T03:59:12;6.53;;;2.30;;
73239;SDS011;61452;40.054;4.110;2022-09-01T04:04:19;6.15;;;1.40;;
73239;SDS011;61452;40.054;4.110;2022-09-01T04:09:21;7.18;;;2.00;;
73239;SDS011;61452;40.054;4.110;2022-09-01T04:14:23;8.05;;;1.80;;
73239;SDS011;61452;40.054;4.110;2022-09-01T04:19:35;6.25;;;2.03;;
73239;SDS011;61452;40.054;4.110;2022-09-01T04:24:42;12.88;;;1.80;;
73239;SDS011;61452;40.054;4.110;2022-09-01T04:29:46;7.50;;;1.70;;
73239;SDS011;61452;40.054;4.110;2022-09-01T04:34:49;6.72;;;1.75;;
73239;SDS011;61452;40.054;4.110;2022-09-01T04:39:52;7.68;;;1.90;;
73239;SDS011;61452;40.054;4.110;2022-09-01T04:44:58;7.97;;;1.95;;
73239;SDS011;61452;40.054;4.110;2022-09-01T04:50:14;5.63;;;1.77;;
73239;SDS011;61452;40.054;4.110;2022-09-01T04:55:38;5.68;;;1.73;;
73239;SDS011;61452;40.054;4.110;2022-09-01T05:00:45;6.70;;;2.28;;
73239;SDS011;61452;40.054;4.110;2022-09-01T05:05:51;5.10;;;1.52;;
73239;SDS011;61452;40.054;4.110;2022-09-01T05:10:55;6.53;;;1.70;;
73239;SDS011;61452;40.054;4.110;2022-09-01T05:16:13;4.05;;;1.60;;
73239;SDS011;61452;40.054;4.110;2022-09-01T05:21:27;4.45;;;2.20;;
73239;SDS011;61452;40.054;4.110;2022-09-01T05:26:32;4.68;;;1.70;;
73239;SDS011;61452;40.054;4.110;2022-09-01T05:31:35;7.78;;;2.13;;
73239;SDS011;61452;40.054;4.110;2022-09-01T05:36:42;7.38;;;1.63;;
73239;SDS011;61452;40.054;4.110;2022-09-01T05:41:47;4.93;;;1.63;;
73239;SDS011;61452;40.054;4.110;2022-09-01T05:46:51;8.20;;;1.77;;
73239;SDS011;61452;40.054;4.110;2022-09-01T05:51:54;5.25;;;1.60;;
73239;SDS011;61452;40.054;4.110;2022-09-01T05:57:01;6.85;;;1.90;;
73239;SDS011;61452;40.054;4.110;2022-09-01T06:02:24;10.02;;;1.90;;
73239;SDS011;61452;40.054;4.110;2022-09-01T06:07:30;6.25;;;1.60;;
73239;SDS011;61452;40.054;4.110;2022-09-01T06:12:34;5.88;;;1.77;;
73239;SDS011;61452;40.054;4.110;2022-09-01T06:17:36;6.85;;;1.70;;
73239;SDS011;61452;40.054;4.110;2022-09-01T06:22:38;6.68;;;1.90;;
73239;SDS011;61452;40.054;4.110;2022-09-01T06:27:42;6.30;;;1.35;;
73239;SDS011;61452;40.054;4.110;2022-09-01T06:32:47;6.40;;;1.50;;
73239;SDS011;61452;40.054;4.110;2022-09-01T06:37:50;7.35;;;1.85;;
73239;SDS011;61452;40.054;4.110;2022-09-01T06:43:15;4.82;;;1.40;;
73239;SDS011;61452;40.054;4.110;2022-09-01T06:48:22;6.45;;;2.10;;
73239;SDS011;61452;40.054;4.110;2022-09-01T06:53:29;7.22;;;1.95;;
73239;SDS011;61452;40.054;4.110;2022-09-01T06:58:35;7.13;;;2.00;;
73239;SDS011;61452;40.054;4.110;2022-09-01T07:03:38;8.40;;;2.03;;
73239;SDS011;61452;40.054;4.110;2022-09-01T07:08:50;7.65;;;2.05;;
73239;SDS011;61452;40.054;4.110;2022-09-01T07:14:17;19.83;;;3.85;;
73239;SDS011;61452;40.054;4.110;2022-09-01T07:19:20;10.18;;;2.63;;
73239;SDS011;61452;40.054;4.110;2022-09-01T07:24:29;10.63;;;2.33;;
73239;SDS011;61452;40.054;4.110;2022-09-01T07:29:52;9.57;;;2.65;;
73239;SDS011;61452;40.054;4.110;2022-09-01T07:34:56;8.63;;;2.22;;
73239;SDS011;61452;40.054;4.110;2022-09-01T07:40:01;6.70;;;2.08;;
73239;SDS011;61452;40.054;4.110;2022-09-01T07:45:31;6.68;;;2.00;;
73239;SDS011;61452;40.054;4.110;2022-09-01T07:50:40;7.60;;;1.90;;
73239;SDS011;61452;40.054;4.110;2022-09-01T07:56:08;9.45;;;2.60;;
73239;SDS011;61452;40.054;4.110;2022-09-01T08:01:20;9.18;;;2.72;;
73239;SDS011;61452;40.054;4.110;2022-09-01T08:06:24;8.15;;;2.30;;
73239;SDS011;61452;40.054;4.110;2022-09-01T08:11:29;12.48;;;3.45;;
73239;SDS011;61452;40.054;4.110;2022-09-01T08:16:52;7.10;;;2.67;;
73239;SDS011;61452;40.054;4.110;2022-09-01T08:21:56;5.97;;;2.55;;
73239;SDS011;61452;40.054;4.110;2022-09-01T08:27:08;7.95;;;2.63;;
73239;SDS011;61452;40.054;4.110;2022-09-01T08:32:10;5.75;;;2.92;;
73239;SDS011;61452;40.054;4.110;2022-09-01T08:37:12;5.57;;;2.63;;
73239;SDS011;61452;40.054;4.110;2022-09-01T08:42:18;7.65;;;2.85;;
73239;SDS011;61452;40.054;4.110;2022-09-01T08:53:32;6.05;;;2.65;;
73239;SDS011;61452;40.054;4.110;2022-09-01T08:58:29;6.45;;;2.63;;
73239;SDS011;61452;40.054;4.110;2022-09-01T09:19:30;6.28;;;2.78;;
73239;SDS011;61452;40.054;4.110;2022-09-01T09:24:39;6.40;;;2.50;;
73239;SDS011;61452;40.054;4.110;2022-09-01T09:29:49;6.05;;;2.42;;
73239;SDS011;61452;40.054;4.110;2022-09-01T09:34:57;5.63;;;2.45;;
73239;SDS011;61452;40.054;4.110;2022-09-01T09:40:24;7.70;;;2.55;;
73239;SDS011;61452;40.054;4.110;2022-09-01T09:45:35;5.13;;;2.58;;
73239;SDS011;61452;40.054;4.110;2022-09-01T09:50:42;7.55;;;2.90;;
73239;SDS011;61452;40.054;4.110;2022-09-01T09:56:28;5.65;;;2.63;;
73239;SDS011;61452;40.054;4.110;2022-09-01T10:11:38;7.25;;;2.42;;
73239;SDS011;61452;40.054;4.110;2022-09-01T10:16:42;4.00;;;2.72;;
73239;SDS011;61452;40.054;4.110;2022-09-01T10:21:48;4.50;;;2.83;;
73239;SDS011;61452;40.054;4.110;2022-09-01T10:26:52;3.97;;;2.42;;
73239;SDS011;61452;40.054;4.110;2022-09-01T10:31:57;4.20;;;3.00;;
73239;SDS011;61452;40.054;4.110;2022-09-01T10:37:21;6.35;;;2.65;;
73239;SDS011;61452;40.054;4.110;2022-09-01T10:42:25;4.97;;;2.78;;
73239;SDS011;61452;40.054;4.110;2022-09-01T10:47:32;5.38;;;3.13;;
73239;SDS011;61452;40.054;4.110;2022-09-01T11:08:45;4.88;;;3.20;;
73239;SDS011;61452;40.054;4.110;2022-09-01T11:13:58;4.45;;;3.10;;
73239;SDS011;61452;40.054;4.110;2022-09-01T11:19:26;5.82;;;3.08;;
73239;SDS011;61452;40.054;4.110;2022-09-01T11:34:56;6.57;;;2.90;;
73239;SDS011;61452;40.054;4.110;2022-09-01T11:40:04;4.85;;;3.05;;
73239;SDS011;61452;40.054;4.110;2022-09-01T11:45:17;5.50;;;2.78;;
73239;SDS011;61452;40.054;4.110;2022-09-01T11:50:25;5.43;;;3.05;;
73239;SDS011;61452;40.054;4.110;2022-09-01T11:55:38;5.93;;;3.28;;
73239;SDS011;61452;40.054;4.110;2022-09-01T12:00:45;5.47;;;3.00;;
73239;SDS011;61452;40.054;4.110;2022-09-01T12:05:51;5.85;;;3.40;;
73239;SDS011;61452;40.054;4.110;2022-09-01T12:11:01;4.78;;;3.50;;
73239;SDS011;61452;40.054;4.110;2022-09-01T12:16:09;5.00;;;2.95;;
73239;SDS011;61452;40.054;4.110;2022-09-01T12:21:23;4.05;;;3.30;;
73239;SDS011;61452;40.054;4.110;2022-09-01T12:31:36;4.68;;;2.95;;
73239;SDS011;61452;40.054;4.110;2022-09-01T12:36:43;5.57;;;3.20;;
73239;SDS011;61452;40.054;4.110;2022-09-01T12:42:12;3.95;;;3.35;;
73239;SDS011;61452;40.054;4.110;2022-09-01T12:52:51;6.57;;;3.45;;
73239;SDS011;61452;40.054;4.110;2022-09-01T12:58:05;4.55;;;3.33;;
73239;SDS011;61452;40.054;4.110;2022-09-01T13:03:13;4.07;;;3.22;;
73239;SDS011;61452;40.054;4.110;2022-09-01T13:08:19;4.47;;;3.60;;
73239;SDS011;61452;40.054;4.110;2022-09-01T13:13:24;5.68;;;3.30;;
73239;SDS011;61452;40.054;4.110;2022-09-01T13:18:27;7.05;;;3.28;;
73239;SDS011;61452;40.054;4.110;2022-09-01T13:23:30;6.30;;;3.58;;
73239;SDS011;61452;40.054;4.110;2022-09-01T13:28:32;4.15;;;3.10;;
73239;SDS011;61452;40.054;4.110;2022-09-01T13:33:39;5.25;;;3.53;;
73239;SDS011;61452;40.054;4.110;2022-09-01T13:39:01;5.82;;;3.42;;
73239;SDS011;61452;40.054;4.110;2022-09-01T13:44:03;5.32;;;3.08;;
73239;SDS011;61452;40.054;4.110;2022-09-01T13:49:05;6.85;;;3.35;;
73239;SDS011;61452;40.054;4.110;2022-09-01T13:54:27;3.58;;;3.10;;
73239;SDS011;61452;40.054;4.110;2022-09-01T13:59:30;6.07;;;3.10;;
73239;SDS011;61452;40.054;4.110;2022-09-01T14:04:33;6.05;;;3.40;;
73239;SDS011;61452;40.054;4.110;2022-09-01T14:14:38;4.20;;;3.10;;
73239;SDS011;61452;40.054;4.110;2022-09-01T14:20:00;3.92;;;2.90;;
73239;SDS011;61452;40.054;4.110;2022-09-01T14:25:03;7.22;;;2.95;;
73239;SDS011;61452;40.054;4.110;2022-09-01T14:30:07;8.48;;;3.28;;
73239;SDS011;61452;40.054;4.110;2022-09-01T14:35:10;4.05;;;2.60;;
73239;SDS011;61452;40.054;4.110;2022-09-01T14:40:13;4.18;;;2.30;;
73239;SDS011;61452;40.054;4.110;2022-09-01T14:45:18;4.68;;;2.47;;
73239;SDS011;61452;40.054;4.110;2022-09-01T14:50:23;7.10;;;2.55;;
73239;SDS011;61452;40.054;4.110;2022-09-01T14:55:26;7.70;;;2.55;;
73239;SDS011;61452;40.054;4.110;2022-09-01T15:00:30;5.50;;;2.65;;
73239;SDS011;61452;40.054;4.110;2022-09-01T15:05:36;6.25;;;2.20;;
73239;SDS011;61452;40.054;4.110;2022-09-01T15:10:40;4.93;;;2.38;;
73239;SDS011;61452;40.054;4.110;2022-09-01T15:15:42;6.20;;;2.45;;
73239;SDS011;61452;40.054;4.110;2022-09-01T15:20:45;4.40;;;1.98;;
73239;SDS011;61452;40.054;4.110;2022-09-01T15:25:48;5.93;;;2.40;;
73239;SDS011;61452;40.054;4.110;2022-09-01T15:30:52;5.30;;;2.60;;
73239;SDS011;61452;40.054;4.110;2022-09-01T15:35:55;9.18;;;2.17;;
73239;SDS011;61452;40.054;4.110;2022-09-01T15:40:57;9.43;;;2.17;;
73239;SDS011;61452;40.054;4.110;2022-09-01T15:46:02;10.18;;;1.90;;
73239;SDS011;61452;40.054;4.110;2022-09-01T15:51:25;11.07;;;2.05;;
73239;SDS011;61452;40.054;4.110;2022-09-01T15:56:26;10.77;;;2.40;;
73239;SDS011;61452;40.054;4.110;2022-09-01T16:01:30;13.02;;;2.40;;
73239;SDS011;61452;40.054;4.110;2022-09-01T16:06:35;12.70;;;2.67;;
73239;SDS011;61452;40.054;4.110;2022-09-01T16:11:38;10.93;;;2.50;;
73239;SDS011;61452;40.054;4.110;2022-09-01T16:27:12;12.15;;;2.85;;
73239;SDS011;61452;40.054;4.110;2022-09-01T16:32:17;16.33;;;2.70;;
73239;SDS011;61452;40.054;4.110;2022-09-01T16:37:36;14.23;;;2.47;;
73239;SDS011;61452;40.054;4.110;2022-09-01T16:59:29;15.25;;;2.65;;
73239;SDS011;61452;40.054;4.110;2022-09-01T17:05:01;13.55;;;2.67;;
73239;SDS011;61452;40.054;4.110;2022-09-01T17:10:21;16.40;;;3.10;;
73239;SDS011;61452;40.054;4.110;2022-09-01T17:15:36;15.57;;;2.92;;
73239;SDS011;61452;40.054;4.110;2022-09-01T17:20:42;11.90;;;2.90;;
73239;SDS011;61452;40.054;4.110;2022-09-01T17:26:00;15.45;;;2.40;;
73239;SDS011;61452;40.054;4.110;2022-09-01T17:31:10;11.88;;;2.38;;
73239;SDS011;61452;40.054;4.110;2022-09-01T17:42:16;15.40;;;3.90;;
73239;SDS011;61452;40.054;4.110;2022-09-01T17:53:13;13.20;;;2.75;;
73239;SDS011;61452;40.054;4.110;2022-09-01T18:04:06;11.80;;;3.00;;
73239;SDS011;61452;40.054;4.110;2022-09-01T18:09:40;10.15;;;2.72;;
73239;SDS011;61452;40.054;4.110;2022-09-01T18:15:00;10.13;;;2.92;;
73239;SDS011;61452;40.054;4.110;2022-09-01T18:25:37;14.40;;;3.45;;
73239;SDS011;61452;40.054;4.110;2022-09-01T18:46:46;10.27;;;2.58;;
73239;SDS011;61452;40.054;4.110;2022-09-01T18:57:10;11.02;;;2.58;;
73239;SDS011;61452;40.054;4.110;2022-09-01T19:07:52;10.13;;;2.50;;
73239;SDS011;61452;40.054;4.110;2022-09-01T19:13:02;13.05;;;3.08;;
73239;SDS011;61452;40.054;4.110;2022-09-01T19:18:26;11.35;;;2.72;;
73239;SDS011;61452;40.054;4.110;2022-09-01T19:23:40;9.70;;;2.97;;
73239;SDS011;61452;40.054;4.110;2022-09-01T19:28:49;10.52;;;2.60;;
73239;SDS011;61452;40.054;4.110;2022-09-01T19:34:38;9.27;;;2.22;;
73239;SDS011;61452;40.054;4.110;2022-09-01T19:55:17;10.43;;;2.80;;
73239;SDS011;61452;40.054;4.110;2022-09-01T20:12:06;10.40;;;2.97;;
73239;SDS011;61452;40.054;4.110;2022-09-01T20:16:44;11.07;;;2.80;;
73239;SDS011;61452;40.054;4.110;2022-09-01T20:21:50;15.02;;;3.50;;
73239;SDS011;61452;40.054;4.110;2022-09-01T20:26:58;13.25;;;3.05;;
73239;SDS011;61452;40.054;4.110;2022-09-01T20:32:05;9.43;;;3.67;;
73239;SDS011;61452;40.054;4.110;2022-09-01T20:37:30;10.00;;;2.85;;
73239;SDS011;61452;40.054;4.110;2022-09-01T20:48:14;12.90;;;3.00;;
73239;SDS011;61452;40.054;4.110;2022-09-01T21:09:20;13.65;;;3.63;;
73239;SDS011;61452;40.054;4.110;2022-09-01T21:25:10;12.95;;;2.92;;
73239;SDS011;61452;40.054;4.110;2022-09-01T21:30:13;13.65;;;3.40;;
73239;SDS011;61452;40.054;4.110;2022-09-01T21:35:16;11.63;;;3.08;;
73239;SDS011;61452;40.054;4.110;2022-09-01T21:40:21;11.13;;;2.95;;
73239;SDS011;61452;40.054;4.110;2022-09-01T21:45:26;13.23;;;3.08;;
73239;SDS011;61452;40.054;4.110;2022-09-01T21:50:28;19.63;;;3.28;;
73239;SDS011;61452;40.054;4.110;2022-09-01T21:55:30;15.27;;;3.25;;
73239;SDS011;61452;40.054;4.110;2022-09-01T22:00:33;12.90;;;3.50;;
73239;SDS011;61452;40.054;4.110;2022-09-01T22:05:40;14.93;;;3.35;;
73239;SDS011;61452;40.054;4.110;2022-09-01T22:10:46;16.27;;;3.22;;
73239;SDS011;61452;40.054;4.110;2022-09-01T22:15:51;15.25;;;3.10;;
73239;SDS011;61452;40.054;4.110;2022-09-01T22:21:03;14.10;;;3.20;;
73239;SDS011;61452;40.054;4.110;2022-09-01T22:26:08;11.35;;;3.05;;
73239;SDS011;61452;40.054;4.110;2022-09-01T22:31:19;15.43;;;3.20;;
73239;SDS011;61452;40.054;4.110;2022-09-01T22:36:33;12.18;;;3.20;;
73239;SDS011;61452;40.054;4.110;2022-09-01T22:41:38;13.77;;;3.20;;
73239;SDS011;61452;40.054;4.110;2022-09-01T22:46:41;13.52;;;2.97;;
73239;SDS011;61452;40.054;4.110;2022-09-01T22:51:43;9.07;;;2.78;;
73239;SDS011;61452;40.054;4.110;2022-09-01T22:56:46;16.88;;;3.67;;
73239;SDS011;61452;40.054;4.110;2022-09-01T23:01:50;12.30;;;2.50;;
73239;SDS011;61452;40.054;4.110;2022-09-01T23:06:52;9.50;;;3.35;;
73239;SDS011;61452;40.054;4.110;2022-09-01T23:11:55;14.30;;;3.85;;
73239;SDS011;61452;40.054;4.110;2022-09-01T23:16:57;12.73;;;3.28;;
73239;SDS011;61452;40.054;4.110;2022-09-01T23:21:59;11.15;;;3.38;;
73239;SDS011;61452;40.054;4.110;2022-09-01T23:27:01;10.88;;;2.97;;
73239;SDS011;61452;40.054;4.110;2022-09-01T23:32:04;9.63;;;3.15;;
73239;SDS011;61452;40.054;4.110;2022-09-01T23:37:06;13.48;;;3.58;;
73239;SDS011;61452;40.054;4.110;2022-09-01T23:42:08;10.68;;;3.20;;
73239;SDS011;61452;40.054;4.110;2022-09-01T23:47:10;11.38;;;2.80;;
73239;SDS011;61452;40.054;4.110;2022-09-01T23:52:13;15.73;;;3.20;;
73239;SDS011;61452;40.054;4.110;2022-09-01T23:57:15;14.02;;;3.10;;
